createdAt,value
2022-07-25T00:00:10.471Z,5.28
2022-07-25T00:02:38.661Z,5.20
2022-07-25T00:05:07.154Z,5.40
2022-07-25T00:07:36.926Z,5.30
2022-07-25T00:10:05.322Z,5.10
2022-07-25T00:12:33.453Z,4.82
2022-07-25T00:15:01.433Z,5.05
2022-07-25T00:17:29.393Z,5.00
2022-07-25T00:19:57.332Z,5.20
2022-07-25T00:22:25.288Z,4.95
2022-07-25T00:24:54.733Z,4.93
2022-07-25T00:27:22.677Z,4.75
2022-07-25T00:29:50.690Z,6.00
2022-07-25T00:32:18.658Z,4.95
2022-07-25T00:34:46.664Z,5.13
2022-07-25T00:37:14.706Z,4.78
2022-07-25T00:39:42.661Z,4.57
2022-07-25T00:42:12.032Z,4.80
2022-07-25T00:44:39.988Z,5.13
2022-07-25T00:47:07.996Z,5.20
2022-07-25T00:49:35.910Z,4.90
2022-07-25T00:52:03.944Z,4.75
2022-07-25T00:54:32.004Z,4.70
2022-07-25T00:56:59.977Z,5.32
2022-07-25T00:59:31.555Z,4.63
2022-07-25T01:01:59.669Z,5.20
2022-07-25T01:04:31.954Z,5.05
2022-07-25T01:06:59.919Z,4.82
2022-07-25T01:09:27.914Z,4.57
2022-07-25T01:11:55.841Z,4.63
2022-07-25T01:14:23.943Z,4.68
2022-07-25T01:16:53.289Z,4.70
2022-07-25T01:19:21.265Z,5.20
2022-07-25T01:21:50.625Z,5.13
2022-07-25T01:24:18.600Z,5.05
2022-07-25T01:26:46.670Z,5.50
2022-07-25T01:29:14.610Z,5.75
2022-07-25T01:31:42.549Z,5.32
2022-07-25T01:34:10.556Z,5.50
2022-07-25T01:36:38.597Z,5.07
2022-07-25T01:39:07.965Z,6.00
2022-07-25T01:41:35.962Z,5.30
2022-07-25T01:44:04.320Z,5.35
2022-07-25T01:46:32.579Z,5.68
2022-07-25T01:49:00.869Z,5.00
2022-07-25T01:51:28.879Z,4.82
2022-07-25T01:53:56.798Z,5.18
2022-07-25T01:56:26.905Z,5.22
2022-07-25T01:58:56.610Z,5.10
2022-07-25T02:01:24.722Z,5.55
2022-07-25T02:03:52.731Z,4.88
2022-07-25T02:06:21.062Z,5.20
2022-07-25T02:08:49.034Z,5.43
2022-07-25T02:11:17.912Z,5.68
2022-07-25T02:13:47.372Z,5.45
2022-07-25T02:16:15.311Z,5.43
2022-07-25T02:18:43.248Z,5.10
2022-07-25T02:21:14.130Z,5.00
2022-07-25T02:23:42.864Z,5.53
2022-07-25T02:26:10.904Z,4.75
2022-07-25T02:28:38.872Z,5.40
2022-07-25T02:31:08.509Z,5.40
2022-07-25T02:33:36.706Z,5.10
2022-07-25T02:36:04.799Z,5.45
2022-07-25T02:38:32.853Z,5.50
2022-07-25T02:41:00.817Z,5.22
2022-07-25T02:43:28.852Z,5.78
2022-07-25T02:45:56.888Z,5.03
2022-07-25T02:48:26.467Z,5.30
2022-07-25T02:50:54.505Z,5.43
2022-07-25T02:53:40.303Z,5.55
2022-07-25T02:56:10.515Z,5.32
2022-07-25T02:58:39.300Z,5.28
2022-07-25T03:01:07.402Z,5.53
2022-07-25T03:03:36.953Z,5.18
2022-07-25T03:06:05.018Z,5.20
2022-07-25T03:08:33.002Z,5.10
2022-07-25T03:11:00.943Z,5.45
2022-07-25T03:13:28.896Z,5.13
2022-07-25T03:15:57.208Z,6.25
2022-07-25T03:18:25.132Z,4.70
2022-07-25T03:20:54.556Z,4.90
2022-07-25T03:23:22.507Z,5.45
2022-07-25T03:25:50.453Z,5.85
2022-07-25T03:28:18.425Z,5.47
2022-07-25T03:30:47.651Z,5.38
2022-07-25T03:33:15.636Z,5.20
2022-07-25T03:35:43.568Z,5.43
2022-07-25T03:38:12.969Z,5.70
2022-07-25T03:40:40.913Z,4.63
2022-07-25T03:43:08.856Z,5.15
2022-07-25T03:45:37.064Z,5.55
2022-07-25T03:48:05.220Z,5.13
2022-07-25T03:50:33.259Z,5.22
2022-07-25T03:53:01.262Z,4.82
2022-07-25T03:55:30.783Z,5.55
2022-07-25T03:57:58.725Z,4.80
2022-07-25T04:00:26.743Z,5.47
2022-07-25T04:02:55.159Z,5.07
2022-07-25T04:05:23.245Z,5.57
2022-07-25T04:07:51.253Z,4.97
2022-07-25T04:10:19.179Z,5.30
2022-07-25T04:12:48.523Z,4.97
2022-07-25T04:15:16.963Z,4.80
2022-07-25T04:17:44.887Z,5.40
2022-07-25T04:20:13.911Z,5.13
2022-07-25T04:22:46.341Z,5.20
2022-07-25T04:25:14.845Z,5.10
2022-07-25T04:27:42.927Z,5.32
2022-07-25T04:30:13.406Z,5.30
2022-07-25T04:32:52.270Z,4.63
2022-07-25T04:35:20.191Z,4.75
2022-07-25T04:37:48.122Z,5.10
2022-07-25T04:40:16.769Z,5.28
2022-07-25T04:42:44.920Z,5.30
2022-07-25T04:45:14.765Z,5.15
2022-07-25T04:47:46.070Z,4.97
2022-07-25T04:50:14.239Z,4.57
2022-07-25T04:52:42.291Z,5.10
2022-07-25T04:55:10.590Z,5.10
2022-07-25T04:57:38.558Z,5.35
2022-07-25T05:00:08.104Z,4.97
2022-07-25T05:02:37.888Z,4.90
2022-07-25T05:05:06.431Z,4.90
2022-07-25T05:07:34.433Z,4.63
2022-07-25T05:10:02.631Z,5.32
2022-07-25T05:12:30.548Z,4.82
2022-07-25T05:14:58.499Z,5.70
2022-07-25T05:17:26.436Z,4.32
2022-07-25T05:19:55.821Z,5.57
2022-07-25T05:22:28.244Z,5.20
2022-07-25T05:24:57.056Z,5.00
2022-07-25T05:27:25.028Z,5.00
2022-07-25T05:29:52.982Z,5.18
2022-07-25T05:32:21.009Z,4.90
2022-07-25T05:34:48.980Z,4.85
2022-07-25T05:37:18.508Z,5.28
2022-07-25T05:39:46.429Z,4.88
2022-07-25T05:42:14.366Z,4.97
2022-07-25T05:44:42.320Z,5.13
2022-07-25T05:47:10.883Z,4.60
2022-07-25T05:49:38.955Z,5.25
2022-07-25T05:52:12.515Z,4.40
2022-07-25T05:54:43.027Z,4.82
2022-07-25T05:57:10.998Z,4.70
2022-07-25T05:59:38.942Z,4.78
2022-07-25T06:02:07.017Z,4.68
2022-07-25T06:04:35.530Z,4.57
2022-07-25T06:07:03.555Z,4.85
2022-07-25T06:09:32.142Z,4.97
2022-07-25T06:12:01.733Z,4.82
2022-07-25T06:14:31.627Z,4.85
2022-07-25T06:16:59.618Z,4.90
2022-07-25T06:19:27.912Z,4.95
2022-07-25T06:21:56.046Z,4.90
2022-07-25T06:24:23.971Z,4.63
2022-07-25T06:26:52.020Z,5.13
2022-07-25T06:29:21.460Z,5.40
2022-07-25T06:31:49.501Z,4.78
2022-07-25T06:34:17.508Z,5.35
2022-07-25T06:36:45.485Z,4.82
2022-07-25T06:39:13.421Z,5.22
2022-07-25T06:41:41.484Z,5.03
2022-07-25T06:44:10.125Z,6.00
2022-07-25T06:46:39.906Z,6.15
2022-07-25T06:49:08.388Z,5.75
2022-07-25T06:51:36.374Z,5.45
2022-07-25T06:54:04.689Z,5.03
2022-07-25T06:56:33.216Z,5.78
2022-07-25T06:59:01.711Z,5.38
2022-07-25T07:01:30.568Z,5.13
2022-07-25T07:04:00.043Z,5.20
2022-07-25T07:06:28.059Z,5.05
2022-07-25T07:08:56.389Z,5.43
2022-07-25T07:11:24.350Z,5.07
2022-07-25T07:13:52.275Z,4.95
2022-07-25T07:16:20.461Z,5.60
2022-07-25T07:18:49.501Z,6.03
2022-07-25T07:21:21.167Z,5.00
2022-07-25T07:23:49.697Z,4.82
2022-07-25T07:26:21.502Z,5.40
2022-07-25T07:28:49.540Z,4.78
2022-07-25T07:31:18.397Z,4.70
2022-07-25T07:33:46.951Z,5.22
2022-07-25T07:36:15.109Z,5.03
2022-07-25T07:38:45.555Z,5.25
2022-07-25T07:41:13.761Z,4.68
2022-07-25T07:43:42.751Z,5.40
2022-07-25T07:46:10.848Z,5.32
2022-07-25T07:48:39.384Z,5.82
2022-07-25T07:51:07.562Z,5.20
2022-07-25T07:53:52.935Z,5.60
2022-07-25T07:56:22.450Z,5.13
2022-07-25T07:58:50.699Z,5.22
2022-07-25T08:01:18.951Z,5.43
2022-07-25T08:03:47.011Z,5.00
2022-07-25T08:06:15.059Z,5.82
2022-07-25T08:08:43.069Z,5.53
2022-07-25T08:11:11.045Z,4.82
2022-07-25T08:13:40.435Z,5.10
2022-07-25T08:16:08.843Z,5.05
2022-07-25T08:18:36.860Z,5.55
2022-07-25T08:21:06.523Z,5.35
2022-07-25T08:23:35.613Z,4.82
2022-07-25T08:26:04.194Z,5.13
2022-07-25T08:28:32.207Z,5.05
2022-07-25T08:31:01.703Z,4.82
2022-07-25T08:33:29.827Z,5.13
2022-07-25T08:35:59.014Z,5.10
2022-07-25T08:38:27.877Z,5.50
2022-07-25T08:40:56.492Z,5.70
2022-07-25T08:43:24.901Z,7.38
2022-07-25T08:45:53.967Z,5.93
2022-07-25T08:48:24.403Z,6.60
2022-07-25T08:50:53.099Z,5.50
2022-07-25T08:53:37.402Z,5.72
2022-07-25T08:56:12.174Z,5.68
2022-07-25T08:58:43.976Z,5.10
2022-07-25T09:01:12.973Z,5.93
2022-07-25T09:03:43.133Z,5.72
2022-07-25T09:06:18.454Z,5.25
2022-07-25T09:08:53.671Z,5.70
2022-07-25T09:11:32.019Z,5.57
2022-07-25T09:14:01.016Z,5.75
2022-07-25T09:16:32.614Z,5.15
2022-07-25T09:19:10.807Z,5.88
2022-07-25T09:21:39.975Z,5.65
2022-07-25T09:24:12.387Z,13.55
2022-07-25T09:26:47.460Z,8.48
2022-07-25T09:29:19.672Z,7.30
2022-07-25T09:31:48.209Z,6.75
2022-07-25T09:34:30.066Z,5.28
2022-07-25T09:36:58.428Z,5.03
2022-07-25T09:39:34.134Z,5.90
2022-07-25T09:42:02.273Z,5.60
2022-07-25T09:44:31.088Z,5.63
2022-07-25T09:46:59.323Z,5.15
2022-07-25T09:49:38.506Z,5.82
2022-07-25T09:52:06.769Z,5.00
2022-07-25T09:54:34.912Z,5.45
2022-07-25T09:57:03.049Z,4.68
2022-07-25T09:59:31.230Z,5.55
2022-07-25T10:02:02.841Z,5.32
2022-07-25T10:04:39.685Z,5.10
2022-07-25T10:07:10.673Z,4.75
2022-07-25T10:09:42.777Z,5.20
2022-07-25T10:12:11.572Z,4.90
2022-07-25T10:14:40.081Z,4.82
2022-07-25T10:17:08.551Z,5.05
2022-07-25T10:19:43.812Z,4.65
2022-07-25T10:22:16.065Z,4.90
2022-07-25T10:24:45.624Z,4.93
2022-07-25T10:27:14.972Z,5.00
2022-07-25T10:29:43.472Z,5.50
2022-07-25T10:32:12.369Z,4.93
2022-07-25T10:34:42.116Z,4.80
2022-07-25T10:37:11.251Z,5.03
2022-07-25T10:39:39.893Z,4.60
2022-07-25T10:42:08.167Z,5.07
2022-07-25T10:44:45.513Z,6.15
2022-07-25T10:47:14.164Z,5.57
2022-07-25T10:50:13.359Z,4.85
2022-07-25T10:52:33.075Z,4.85
2022-07-25T10:55:02.026Z,6.20
2022-07-25T10:57:32.279Z,5.13
2022-07-25T11:00:06.669Z,5.47
2022-07-25T11:02:34.901Z,4.75
2022-07-25T11:05:05.132Z,4.80
2022-07-25T11:07:36.377Z,5.20
2022-07-25T11:10:05.468Z,5.88
2022-07-25T11:12:33.621Z,5.03
2022-07-25T11:15:02.897Z,4.60
2022-07-25T11:17:30.986Z,4.47
2022-07-25T11:19:59.846Z,4.32
2022-07-25T11:22:29.922Z,4.35
2022-07-25T11:24:58.129Z,4.60
2022-07-25T11:27:27.469Z,5.07
2022-07-25T11:29:55.757Z,4.82
2022-07-25T11:32:23.705Z,4.75
2022-07-25T11:34:53.676Z,4.40
2022-07-25T11:37:22.550Z,5.10
2022-07-25T11:39:53.746Z,4.50
2022-07-25T11:42:23.068Z,4.50
2022-07-25T11:44:51.783Z,4.28
2022-07-25T11:47:24.687Z,4.90
2022-07-25T11:49:54.394Z,5.40
2022-07-25T11:52:24.070Z,5.05
2022-07-25T11:54:57.426Z,5.10
2022-07-25T11:57:26.273Z,4.88
2022-07-25T11:59:55.008Z,4.57
2022-07-25T12:02:24.036Z,4.55
2022-07-25T12:04:57.314Z,4.60
2022-07-25T12:07:35.841Z,4.70
2022-07-25T12:10:05.536Z,4.57
2022-07-25T12:12:42.386Z,4.38
2022-07-25T12:15:11.272Z,4.57
2022-07-25T12:17:39.346Z,4.00
2022-07-25T12:20:12.190Z,3.80
2022-07-25T12:22:40.256Z,4.28
2022-07-25T12:25:11.249Z,3.97
2022-07-25T12:27:39.278Z,4.20
2022-07-25T12:30:08.244Z,4.15
2022-07-25T12:32:36.428Z,4.30
2022-07-25T12:35:04.982Z,3.90
2022-07-25T12:37:32.974Z,4.63
2022-07-25T12:40:01.055Z,4.43
2022-07-25T12:42:30.459Z,4.55
2022-07-25T12:44:58.693Z,4.68
2022-07-25T12:47:27.154Z,4.30
2022-07-25T12:49:55.460Z,4.15
2022-07-25T12:52:23.530Z,4.63
2022-07-25T12:54:51.540Z,4.38
2022-07-25T12:57:20.865Z,4.55
2022-07-25T12:59:50.277Z,4.38
2022-07-25T13:02:18.367Z,4.50
2022-07-25T13:04:46.418Z,4.10
2022-07-25T13:07:16.218Z,4.20
2022-07-25T13:09:44.235Z,4.50
2022-07-25T13:12:16.367Z,4.95
2022-07-25T13:14:44.768Z,4.43
2022-07-25T13:17:14.273Z,4.28
2022-07-25T13:19:42.217Z,4.25
2022-07-25T13:22:10.191Z,4.22
2022-07-25T13:24:39.449Z,4.43
2022-07-25T13:27:07.721Z,4.40
2022-07-25T13:29:36.044Z,3.95
2022-07-25T13:32:04.141Z,4.25
2022-07-25T13:34:33.636Z,4.20
2022-07-25T13:37:01.625Z,4.60
2022-07-25T13:39:29.618Z,4.40
2022-07-25T13:41:57.591Z,4.15
2022-07-25T13:44:25.588Z,4.35
2022-07-25T13:46:53.542Z,4.53
2022-07-25T13:49:21.655Z,4.93
2022-07-25T13:51:51.170Z,4.43
2022-07-25T13:54:19.191Z,4.22
2022-07-25T13:56:47.670Z,4.53
2022-07-25T13:59:20.979Z,5.88
2022-07-25T14:01:49.661Z,4.53
2022-07-25T14:04:17.737Z,4.57
2022-07-25T14:06:46.507Z,4.00
2022-07-25T14:09:15.883Z,4.63
2022-07-25T14:11:43.854Z,4.93
2022-07-25T14:14:11.833Z,4.50
2022-07-25T14:16:39.949Z,4.80
2022-07-25T14:19:08.266Z,4.32
2022-07-25T14:21:36.551Z,4.68
2022-07-25T14:24:05.482Z,4.60
2022-07-25T14:26:36.272Z,5.07
2022-07-25T14:29:04.604Z,4.25
2022-07-25T14:31:33.295Z,4.50
2022-07-25T14:34:01.342Z,4.30
2022-07-25T14:36:29.315Z,4.80
2022-07-25T14:38:57.279Z,4.07
2022-07-25T14:41:25.308Z,4.30
2022-07-25T14:43:54.702Z,4.57
2022-07-25T14:46:22.850Z,4.28
2022-07-25T14:48:50.882Z,4.32
2022-07-25T14:51:20.051Z,4.72
2022-07-25T14:53:52.845Z,4.13
2022-07-25T14:56:21.308Z,4.10
2022-07-25T14:58:49.477Z,4.45
2022-07-25T15:01:21.091Z,4.18
2022-07-25T15:03:49.353Z,3.95
2022-07-25T15:06:17.581Z,4.88
2022-07-25T15:08:45.580Z,4.93
2022-07-25T15:11:13.611Z,4.07
2022-07-25T15:13:41.656Z,4.68
2022-07-25T15:16:10.086Z,3.95
2022-07-25T15:19:05.514Z,4.68
2022-07-25T15:21:27.716Z,4.65
2022-07-25T15:23:57.502Z,4.72
2022-07-25T15:26:25.465Z,4.55
2022-07-25T15:28:53.493Z,4.00
2022-07-25T15:31:23.611Z,4.65
2022-07-25T15:33:53.433Z,4.80
2022-07-25T15:36:24.536Z,4.53
2022-07-25T15:38:56.895Z,4.38
2022-07-25T15:41:24.899Z,4.00
2022-07-25T15:43:52.868Z,4.30
2022-07-25T15:46:20.979Z,4.07
2022-07-25T15:48:49.742Z,4.55
2022-07-25T15:51:19.440Z,4.25
2022-07-25T15:53:47.400Z,4.53
2022-07-25T15:56:15.621Z,4.82
2022-07-25T15:58:43.609Z,4.55
2022-07-25T16:01:11.770Z,4.25
2022-07-25T16:03:39.912Z,4.10
2022-07-25T16:06:08.013Z,4.13
2022-07-25T16:08:37.657Z,4.60
2022-07-25T16:11:05.999Z,4.95
2022-07-25T16:13:34.004Z,4.65
2022-07-25T16:16:02.006Z,4.25
2022-07-25T16:18:30.039Z,3.90
2022-07-25T16:20:58.007Z,4.10
2022-07-25T16:23:28.267Z,4.05
2022-07-25T16:25:57.802Z,4.60
2022-07-25T16:28:26.350Z,4.43
2022-07-25T16:30:54.365Z,3.97
2022-07-25T16:33:22.395Z,4.35
2022-07-25T16:35:50.366Z,4.65
2022-07-25T16:38:18.358Z,4.60
2022-07-25T16:40:46.334Z,3.67
2022-07-25T16:43:15.830Z,4.40
2022-07-25T16:45:43.812Z,4.20
2022-07-25T16:48:12.022Z,4.15
2022-07-25T16:50:40.295Z,4.32
2022-07-25T16:53:08.541Z,4.50
2022-07-25T16:55:36.557Z,4.55
2022-07-25T16:58:04.580Z,3.83
2022-07-25T17:00:34.018Z,4.57
2022-07-25T17:03:02.440Z,3.67
2022-07-25T17:05:30.493Z,3.72
2022-07-25T17:07:59.802Z,4.00
2022-07-25T17:10:28.178Z,4.15
2022-07-25T17:12:56.177Z,4.38
2022-07-25T17:15:24.253Z,3.80
2022-07-25T17:17:53.723Z,4.13
2022-07-25T17:20:21.713Z,4.28
2022-07-25T17:22:49.738Z,4.13
2022-07-25T17:25:17.985Z,3.85
2022-07-25T17:27:45.946Z,4.30
2022-07-25T17:30:14.247Z,3.95
2022-07-25T17:32:42.237Z,3.90
2022-07-25T17:35:11.914Z,3.78
2022-07-25T17:37:39.906Z,3.95
2022-07-25T17:40:08.453Z,3.63
2022-07-25T17:42:36.472Z,3.20
2022-07-25T17:45:07.166Z,3.92
2022-07-25T17:47:35.432Z,4.15
2022-07-25T17:50:03.549Z,3.85
2022-07-25T17:52:32.999Z,3.97
2022-07-25T17:55:00.986Z,3.60
2022-07-25T17:57:28.963Z,3.67
2022-07-25T17:59:57.499Z,3.28
2022-07-25T18:02:25.683Z,3.90
2022-07-25T18:04:53.762Z,3.85
2022-07-25T18:07:21.953Z,4.10
2022-07-25T18:09:51.362Z,4.13
2022-07-25T18:12:19.362Z,3.47
2022-07-25T18:14:47.418Z,3.80
2022-07-25T18:17:15.693Z,3.60
2022-07-25T18:19:43.646Z,3.50
2022-07-25T18:22:11.650Z,3.63
2022-07-25T18:24:39.610Z,3.92
2022-07-25T18:27:09.058Z,4.10
2022-07-25T18:29:38.948Z,3.47
2022-07-25T18:32:07.461Z,3.25
2022-07-25T18:34:35.496Z,3.45
2022-07-25T18:37:03.588Z,3.92
2022-07-25T18:39:31.686Z,3.75
2022-07-25T18:41:59.772Z,3.30
2022-07-25T18:44:29.237Z,3.55
2022-07-25T18:46:57.287Z,4.22
2022-07-25T18:49:27.248Z,4.05
2022-07-25T18:51:55.348Z,3.70
2022-07-25T18:54:23.396Z,3.60
2022-07-25T18:56:51.387Z,3.72
2022-07-25T18:59:19.461Z,3.15
2022-07-25T19:01:50.233Z,4.05
2022-07-25T19:04:18.603Z,3.25
2022-07-25T19:06:46.672Z,4.13
2022-07-25T19:09:14.674Z,3.72
2022-07-25T19:11:42.688Z,3.78
2022-07-25T19:14:10.902Z,3.60
2022-07-25T19:16:39.036Z,3.70
2022-07-25T19:19:09.659Z,2.90
2022-07-25T19:21:37.868Z,3.10
2022-07-25T19:24:06.365Z,2.58
2022-07-25T19:26:34.547Z,3.03
2022-07-25T19:29:02.527Z,2.60
2022-07-25T19:31:30.539Z,3.20
2022-07-25T19:33:58.518Z,2.85
2022-07-25T19:36:27.889Z,2.83
2022-07-25T19:38:55.871Z,3.20
2022-07-25T19:41:23.891Z,3.38
2022-07-25T19:43:52.814Z,2.72
2022-07-25T19:46:20.924Z,3.45
2022-07-25T19:48:48.914Z,2.72
2022-07-25T19:51:17.006Z,2.67
2022-07-25T19:53:46.351Z,2.58
2022-07-25T19:56:14.271Z,2.25
2022-07-25T19:58:43.566Z,2.45
2022-07-25T20:01:11.753Z,2.25
2022-07-25T20:03:39.759Z,2.38
2022-07-25T20:06:08.736Z,2.40
2022-07-25T20:08:36.945Z,2.15
2022-07-25T20:11:06.466Z,2.50
2022-07-25T20:13:34.385Z,2.15
2022-07-25T20:16:04.011Z,2.13
2022-07-25T20:18:32.091Z,2.25
2022-07-25T20:21:00.129Z,1.90
2022-07-25T20:23:28.170Z,1.90
2022-07-25T20:25:56.109Z,2.42
2022-07-25T20:28:25.458Z,2.00
2022-07-25T20:30:54.184Z,2.20
2022-07-25T20:33:23.887Z,2.33
2022-07-25T20:35:51.848Z,2.08
2022-07-25T20:38:19.775Z,2.63
2022-07-25T20:40:49.644Z,2.35
2022-07-25T20:43:17.973Z,2.00
2022-07-25T20:45:47.702Z,2.20
2022-07-25T20:48:15.869Z,1.95
2022-07-25T20:50:44.394Z,2.20
2022-07-25T20:53:12.476Z,1.95
2022-07-25T20:55:40.492Z,1.90
2022-07-25T20:58:08.448Z,1.58
2022-07-25T21:00:36.418Z,1.60
2022-07-25T21:03:08.135Z,1.50
2022-07-25T21:05:37.810Z,1.50
2022-07-25T21:08:06.038Z,1.77
2022-07-25T21:10:34.189Z,1.80
2022-07-25T21:13:02.463Z,1.90
2022-07-25T21:15:31.253Z,1.52
2022-07-25T21:17:59.391Z,1.70
2022-07-25T21:20:28.858Z,1.70
2022-07-25T21:22:56.799Z,1.73
2022-07-25T21:25:24.776Z,1.80
2022-07-25T21:27:52.739Z,1.70
2022-07-25T21:30:20.712Z,1.80
2022-07-25T21:32:48.650Z,1.70
2022-07-25T21:35:16.672Z,2.05
2022-07-25T21:37:46.066Z,2.10
2022-07-25T21:40:14.148Z,1.80
2022-07-25T21:42:42.581Z,1.48
2022-07-25T21:45:10.911Z,1.70
2022-07-25T21:47:38.863Z,1.73
2022-07-25T21:50:43.803Z,1.70
2022-07-25T21:53:14.564Z,1.60
2022-07-25T21:55:42.668Z,1.63
2022-07-25T21:58:10.616Z,1.40
2022-07-25T22:00:45.458Z,1.65
2022-07-25T22:03:13.773Z,1.77
2022-07-25T22:05:41.727Z,1.42
2022-07-25T22:08:09.654Z,1.50
2022-07-25T22:10:39.221Z,1.70
2022-07-25T22:13:10.185Z,1.38
2022-07-25T22:15:38.155Z,1.40
2022-07-25T22:18:06.236Z,1.83
2022-07-25T22:20:34.236Z,1.70
2022-07-25T22:23:02.191Z,1.55
2022-07-25T22:25:30.245Z,1.40
2022-07-25T22:27:59.585Z,1.20
2022-07-25T22:30:27.529Z,1.50
2022-07-25T22:32:55.514Z,1.42
2022-07-25T22:35:23.437Z,1.55
2022-07-25T22:37:51.373Z,1.25
2022-07-25T22:40:19.332Z,1.20
2022-07-25T22:42:47.277Z,1.00
2022-07-25T22:45:16.743Z,1.58
2022-07-25T22:47:44.693Z,1.20
2022-07-25T22:50:12.728Z,1.10
2022-07-25T22:52:40.712Z,1.27
2022-07-25T22:55:09.052Z,1.30
2022-07-25T22:57:37.733Z,0.95
2022-07-25T23:00:07.602Z,0.93
2022-07-25T23:02:37.016Z,1.00
2022-07-25T23:05:05.280Z,1.20
2022-07-25T23:07:33.508Z,1.10
2022-07-25T23:10:01.481Z,1.10
2022-07-25T23:12:29.559Z,1.03
2022-07-25T23:14:57.538Z,0.90
2022-07-25T23:17:25.481Z,0.70
2022-07-25T23:19:55.439Z,1.13
2022-07-25T23:22:24.618Z,0.80
2022-07-25T23:24:52.599Z,0.93
2022-07-25T23:27:20.562Z,0.80
2022-07-25T23:29:48.577Z,1.00
2022-07-25T23:32:16.538Z,0.63
2022-07-25T23:34:44.524Z,1.07
2022-07-25T23:37:13.907Z,0.90
2022-07-25T23:39:41.868Z,0.90
2022-07-25T23:42:09.813Z,0.90
2022-07-25T23:44:39.417Z,0.80
2022-07-25T23:47:10.094Z,0.90
2022-07-25T23:49:38.784Z,1.03
2022-07-25T23:52:06.839Z,0.70
2022-07-25T23:54:38.356Z,0.83
2022-07-25T23:57:06.415Z,0.70
2022-07-25T23:59:34.372Z,0.90
